Time;durP1;ratioP1;P1;durP2;ratioP2;P2;SDS_P1;SDS_P2;PMS_P1;PMS_P2;Temp;Humidity;BMP_temperature;BMP_pressure;BME280_temperature;BME280_humidity;BME280_pressure;Samples;Min_cycle;Max_cycle;Signal;HPM_P1;HPM_P2
2023/05/04 00:01:11;;;;;;;7.30;6.70;;;;;;;21.42;39.78;95217.81;6044278;28;109965;-60
2023/05/04 00:04:14;;;;;;;7.20;6.50;;;;;;;21.40;40.01;95215.47;6047080;28;109578;-60
2023/05/04 00:07:17;;;;;;;6.90;6.30;;;;;;;21.41;39.96;95216.25;6040802;28;109548;-60
2023/05/04 00:10:20;;;;;;;7.00;6.30;;;;;;;21.37;39.85;95210.72;6040199;28;109579;-60
2023/05/04 00:13:24;;;;;;;6.93;6.33;;;;;;;21.39;40.00;95213.88;6057841;28;108917;-62
2023/05/04 00:16:28;;;;;;;7.77;7.10;;;;;;;21.39;39.77;95210.44;6038195;28;109043;-60
2023/05/04 00:19:32;;;;;;;7.07;6.40;;;;;;;21.37;39.91;95205.41;6072450;28;108980;-61
2023/05/04 00:22:35;;;;;;;6.77;6.17;;;;;;;21.37;39.64;95207.28;6043838;28;109178;-60
2023/05/04 00:25:38;;;;;;;6.67;6.10;;;;;;;21.37;39.87;95202.75;6035643;28;109023;-60
2023/05/04 00:28:41;;;;;;;6.77;6.27;;;;;;;21.36;39.95;95211.81;6037690;28;110188;-60
2023/05/04 00:31:45;;;;;;;7.23;6.53;;;;;;;21.38;39.86;95217.63;6043818;28;109081;-60
2023/05/04 00:34:49;;;;;;;6.40;5.90;;;;;;;21.37;39.84;95216.06;6047415;28;109618;-61
2023/05/04 00:37:52;;;;;;;6.20;5.70;;;;;;;21.37;39.55;95221.38;6028862;28;109158;-60
2023/05/04 00:40:56;;;;;;;6.77;6.20;;;;;;;21.36;39.82;95219.81;6041201;28;109247;-61
2023/05/04 00:44:02;;;;;;;6.60;6.00;;;;;;;21.36;39.86;95219.81;6073294;28;109357;-60
2023/05/04 00:47:07;;;;;;;6.50;6.00;;;;;;;21.35;39.51;95222.75;6060746;28;110059;-61
2023/05/04 00:50:12;;;;;;;7.13;6.20;;;;;;;21.31;39.62;95217.22;6041258;28;109147;-62
2023/05/04 00:53:15;;;;;;;6.50;6.00;;;;;;;21.30;39.60;95210.31;6039859;28;109171;-60
2023/05/04 00:56:21;;;;;;;6.37;5.87;;;;;;;21.33;39.49;95216.91;6036420;28;109036;-61
2023/05/04 00:59:24;;;;;;;6.37;5.87;;;;;;;21.33;39.52;95222.25;6034695;28;110353;-61
2023/05/04 01:02:29;;;;;;;6.73;5.80;;;;;;;21.31;39.68;95211.91;6040179;28;110213;-61
2023/05/04 01:05:38;;;;;;;6.27;5.77;;;;;;;21.33;39.88;95219.59;6040597;28;109019;-61
2023/05/04 01:08:50;;;;;;;6.33;5.77;;;;;;;21.32;39.74;95213.47;6030060;28;109846;-61
2023/05/04 01:12:00;;;;;;;6.13;5.70;;;;;;;21.30;39.72;95210.31;6038809;28;109430;-66
2023/05/04 01:15:03;;;;;;;6.57;6.07;;;;;;;21.30;39.80;95210.31;6039478;28;110438;-65
2023/05/04 01:18:08;;;;;;;6.43;5.93;;;;;;;21.29;39.50;95213.28;6039664;28;110067;-64
2023/05/04 01:21:11;;;;;;;6.50;6.00;;;;;;;21.27;39.50;95210.13;6030998;28;109822;-65
2023/05/04 01:24:16;;;;;;;6.20;5.70;;;;;;;21.30;39.49;95204.22;6040832;28;108912;-65
2023/05/04 01:27:24;;;;;;;6.27;5.77;;;;;;;21.31;39.29;95201.25;6076265;28;110924;-61
2023/05/04 01:30:31;;;;;;;6.43;5.93;;;;;;;21.29;39.58;95198.09;6065475;28;109437;-60
2023/05/04 01:33:35;;;;;;;6.40;5.90;;;;;;;21.30;39.71;95194.34;6033898;28;109235;-61
2023/05/04 01:36:39;;;;;;;5.63;5.23;;;;;;;21.29;39.27;95194.66;6039517;28;109270;-61
2023/05/04 01:39:44;;;;;;;5.67;5.20;;;;;;;21.31;39.65;95192.47;6042402;28;109296;-61
2023/05/04 01:42:47;;;;;;;5.97;5.50;;;;;;;21.28;39.72;95188.53;6028183;28;109111;-61
2023/05/04 01:45:50;;;;;;;5.90;5.40;;;;;;;21.28;39.50;95190.41;6047121;28;109440;-60
2023/05/04 01:48:53;;;;;;;5.90;5.47;;;;;;;21.25;39.27;95183.03;6050819;28;109392;-61
2023/05/04 01:51:56;;;;;;;5.30;4.90;;;;;;;21.26;39.71;95181.94;6039721;28;109287;-61
2023/05/04 01:55:00;;;;;;;5.80;5.30;;;;;;;21.26;39.58;95185.38;6040432;28;110225;-60
2023/05/04 01:58:04;;;;;;;5.33;4.93;;;;;;;21.23;39.32;95177.22;6044410;28;109004;-60
2023/05/04 02:01:07;;;;;;;5.97;5.47;;;;;;;21.25;39.70;95186.47;6042409;28;109219;-60
2023/05/04 02:04:10;;;;;;;5.93;5.43;;;;;;;21.23;39.28;95183.31;6040182;28;109189;-60
2023/05/04 02:07:13;;;;;;;5.67;5.17;;;;;;;21.22;39.65;95179.09;6029610;28;109069;-64
2023/05/04 02:10:18;;;;;;;5.97;5.57;;;;;;;21.24;39.34;95179.56;6038761;28;110130;-60
2023/05/04 02:13:22;;;;;;;5.57;5.17;;;;;;;21.21;39.17;95175.63;6040966;28;109270;-65
2023/05/04 02:16:25;;;;;;;4.97;4.60;;;;;;;21.20;39.52;95179.38;6030455;28;109578;-62
2023/05/04 02:19:28;;;;;;;5.70;5.30;;;;;;;21.20;39.69;95190.03;6040457;28;110410;-61
2023/05/04 02:22:32;;;;;;;4.70;4.40;;;;;;;21.23;39.54;95193.97;6043362;28;111601;-61
2023/05/04 02:25:40;;;;;;;5.27;4.87;;;;;;;21.19;39.36;95193.78;6111087;28;110077;-61
2023/05/04 02:28:43;;;;;;;5.00;4.57;;;;;;;21.20;39.30;95194.56;6045696;28;109781;-61
2023/05/04 02:31:46;;;;;;;5.00;4.60;;;;;;;21.20;39.26;95194.56;6035747;28;109816;-61
2023/05/04 02:34:50;;;;;;;5.10;4.70;;;;;;;21.19;39.27;95198.31;6040926;28;109342;-61
2023/05/04 02:37:53;;;;;;;4.97;4.67;;;;;;;21.15;39.40;95194.66;6038763;28;109285;-61
2023/05/04 02:40:58;;;;;;;5.10;4.70;;;;;;;21.18;39.23;95199.41;6028496;28;109235;-61
2023/05/04 02:44:01;;;;;;;5.03;4.63;;;;;;;21.18;39.46;95196.75;6058038;28;111018;-61
2023/05/04 02:47:04;;;;;;;4.43;4.13;;;;;;;21.19;39.38;95195.66;6038771;28;109346;-65
2023/05/04 02:50:08;;;;;;;14.03;6.00;;;;;;;21.18;39.46;95200.19;6029006;28;109739;-61
2023/05/04 02:53:11;;;;;;;4.93;4.40;;;;;;;21.25;39.03;95199.78;6027341;28;110077;-60
2023/05/04 02:56:16;;;;;;;6.70;5.97;;;;;;;21.24;39.60;95198.22;6038262;28;109821;-60
2023/05/04 02:59:19;;;;;;;6.00;5.50;;;;;;;21.26;39.38;95203.22;6037197;28;109961;-61
2023/05/04 03:02:22;;;;;;;7.90;6.17;;;;;;;21.25;39.36;95199.00;6033876;28;111260;-60
2023/05/04 03:05:25;;;;;;;7.40;6.70;;;;;;;21.22;39.37;95205.69;6038913;28;109042;-60
2023/05/04 03:08:29;;;;;;;7.50;6.80;;;;;;;21.24;39.76;95206.19;6037859;28;109467;-61
2023/05/04 03:11:34;;;;;;;9.27;7.43;;;;;;;21.24;39.67;95214.19;6038491;28;109332;-61
2023/05/04 03:14:37;;;;;;;11.23;7.10;;;;;;;21.11;40.03;95209.63;6026321;28;109903;-62
2023/05/04 03:17:40;;;;;;;6.67;6.00;;;;;;;20.78;40.33;95219.50;6038004;28;109135;-62
2023/05/04 03:20:43;;;;;;;5.93;5.53;;;;;;;20.61;40.87;95218.19;6038045;28;110746;-62
2023/05/04 03:23:46;;;;;;;17.73;6.77;;;;;;;20.66;41.22;95216.50;6037360;28;109292;-69
2023/05/04 03:26:51;;;;;;;14.33;7.30;;;;;;;20.81;41.35;95224.22;6027928;28;110462;-68
2023/05/04 03:29:54;;;;;;;13.20;7.63;;;;;;;20.92;41.01;95215.78;6070823;28;109129;-68
2023/05/04 03:32:57;;;;;;;11.30;6.60;;;;;;;20.96;41.17;95209.88;6038589;28;109230;-68
2023/05/04 03:36:00;;;;;;;8.00;6.67;;;;;;;20.96;41.50;95221.31;6033113;28;109366;-68
2023/05/04 03:39:04;;;;;;;8.20;6.70;;;;;;;20.92;41.13;95212.34;6036561;28;109329;-68
2023/05/04 03:42:08;;;;;;;7.10;6.40;;;;;;;20.97;40.99;95225.53;6038689;28;109541;-68
2023/05/04 03:45:11;;;;;;;15.13;7.50;;;;;;;20.74;41.74;95223.84;6035686;28;109140;-67
2023/05/04 03:48:14;;;;;;;14.83;6.70;;;;;;;20.82;41.10;95234.56;6026209;28;109791;-68
2023/05/04 03:51:17;;;;;;;8.50;5.83;;;;;;;20.77;40.92;95229.34;6038208;28;108912;-68
2023/05/04 03:54:20;;;;;;;12.87;6.07;;;;;;;20.76;41.15;95237.63;6052011;28;111134;-67
2023/05/04 03:57:25;;;;;;;11.27;7.33;;;;;;;20.75;41.20;95236.06;6037599;28;109438;-71
2023/05/04 04:00:28;;;;;;;12.27;6.90;;;;;;;20.66;41.79;95237.78;6034523;28;109482;-69
2023/05/04 04:03:31;;;;;;;49.50;10.77;;;;;;;20.60;42.79;95240.53;6037202;28;109908;-69
2023/05/04 04:06:35;;;;;;;10.20;6.63;;;;;;;20.74;43.05;95239.78;6037786;28;109137;-71
2023/05/04 04:09:38;;;;;;;12.47;6.37;;;;;;;20.78;42.36;95248.75;6031129;28;109342;-69
2023/05/04 04:12:42;;;;;;;30.67;8.67;;;;;;;20.83;42.13;95251.31;6030824;28;109088;-70
2023/05/04 04:15:46;;;;;;;12.20;6.10;;;;;;;20.91;43.28;95248.78;6028279;28;109421;-70
2023/05/04 04:18:49;;;;;;;26.50;8.17;;;;;;;;;;6037241;28;112438;-64
2023/05/04 04:21:52;;;;;;;36.50;6.57;;;;;;;20.82;42.07;95253.19;6028132;28;110111;-64
2023/05/04 04:24:55;;;;;;;10.00;4.90;;;;;;;20.73;41.97;95254.16;6037375;28;109168;-64
2023/05/04 04:27:59;;;;;;;8.23;5.40;;;;;;;20.60;42.39;95251.16;6038261;28;109944;-64
2023/05/04 04:31:03;;;;;;;8.70;4.63;;;;;;;20.57;42.37;95251.75;6040352;28;109138;-64
2023/05/04 04:34:06;;;;;;;7.17;4.90;;;;;;;20.58;42.30;95257.88;6030659;28;108942;-63
2023/05/04 04:37:09;;;;;;;11.53;4.73;;;;;;;20.57;42.28;95257.06;6041322;28;109170;-64
2023/05/04 04:40:13;;;;;;;5.20;4.60;;;;;;;20.54;42.33;95267.50;6040633;28;109172;-65
2023/05/04 04:43:17;;;;;;;5.17;4.43;;;;;;;20.47;42.18;95259.09;6040980;28;109031;-64
2023/05/04 04:46:21;;;;;;;4.47;4.07;;;;;;;20.47;42.39;95265.19;6029780;28;109472;-65
2023/05/04 04:49:24;;;;;;;4.33;3.87;;;;;;;20.47;42.50;95262.53;6040545;28;109752;-67
2023/05/04 04:52:27;;;;;;;5.47;3.50;;;;;;;20.47;42.38;95264.41;6040830;28;108887;-65
2023/05/04 04:55:31;;;;;;;4.23;3.83;;;;;;;20.35;42.88;95272.84;6032389;28;108996;-65
2023/05/04 04:58:35;;;;;;;4.80;4.20;;;;;;;20.32;42.77;95270.75;6040321;28;109050;-65
2023/05/04 05:01:40;;;;;;;4.23;3.93;;;;;;;20.49;42.44;95268.34;6040318;28;109141;-65
2023/05/04 05:04:43;;;;;;;5.37;3.93;;;;;;;20.41;42.52;95268.22;6040739;28;109282;-65
2023/05/04 05:07:46;;;;;;;4.93;3.83;;;;;;;20.15;43.64;95273.88;6029921;28;109211;-65
2023/05/04 05:10:50;;;;;;;7.53;4.23;;;;;;;20.07;43.63;95284.38;6039735;28;109035;-64
2023/05/04 05:13:54;;;;;;;5.97;4.50;;;;;;;20.05;43.67;95281.22;6041205;28;109044;-64
2023/05/04 05:16:58;;;;;;;4.70;4.27;;;;;;;19.99;43.90;95283.91;6039826;28;109117;-64
2023/05/04 05:20:01;;;;;;;4.50;3.97;;;;;;;19.90;43.85;95288.28;6030451;28;109196;-64
2023/05/04 05:23:05;;;;;;;4.40;4.00;;;;;;;19.93;43.94;95286.94;6040354;28;109591;-64
2023/05/04 05:26:08;;;;;;;4.60;4.20;;;;;;;19.89;43.94;95289.38;6040855;28;109345;-64
2023/05/04 05:29:12;;;;;;;4.10;3.70;;;;;;;19.88;44.14;95292.31;6035323;28;109434;-64
2023/05/04 05:32:15;;;;;;;4.67;4.27;;;;;;;19.87;44.02;95291.53;6018310;28;109110;-64
2023/05/04 05:35:18;;;;;;;5.43;3.93;;;;;;;19.86;44.16;95295.25;6017182;28;109066;-64
2023/05/04 05:38:21;;;;;;;4.43;4.03;;;;;;;19.87;44.09;95293.41;6015454;28;109703;-64
2023/05/04 05:41:24;;;;;;;4.00;3.70;;;;;;;19.87;44.12;95302.16;6007449;29;110123;-69
2023/05/04 05:44:29;;;;;;;3.93;3.63;;;;;;;19.81;44.35;95302.47;6017033;28;109015;-64
2023/05/04 05:47:32;;;;;;;4.07;3.77;;;;;;;19.83;44.35;95303.00;6026686;28;108854;-64
2023/05/04 05:50:35;;;;;;;4.00;3.70;;;;;;;19.80;44.56;95306.22;6040625;28;109888;-64
2023/05/04 05:53:38;;;;;;;6.20;4.20;;;;;;;19.74;44.67;95308.16;6029839;28;111301;-66
2023/05/04 05:56:41;;;;;;;4.17;3.83;;;;;;;19.77;44.33;95310.22;6040057;28;109463;-65
2023/05/04 05:59:46;;;;;;;4.53;4.13;;;;;;;19.77;44.41;95307.56;6038821;28;109184;-64
2023/05/04 06:02:50;;;;;;;4.57;4.17;;;;;;;19.73;44.66;95307.34;6038166;28;109289;-65
2023/05/04 06:05:53;;;;;;;5.03;4.53;;;;;;;19.77;44.68;95314.75;6028992;28;109079;-65
2023/05/04 06:08:56;;;;;;;4.10;3.80;;;;;;;19.78;44.73;95311.03;6039161;28;109902;-66
2023/05/04 06:12:00;;;;;;;4.53;4.03;;;;;;;19.75;44.72;95309.72;6039501;28;109197;-65
2023/05/04 06:15:06;;;;;;;23.43;5.40;;;;;;;19.86;44.50;95303.22;6031477;28;109399;-72
2023/05/04 06:18:09;;;;;;;4.60;4.00;;;;;;;20.13;44.16;95305.25;6038439;28;109943;-73
2023/05/04 06:21:12;;;;;;;8.37;4.30;;;;;;;20.26;43.90;95301.13;6039337;28;109140;-74
2023/05/04 06:24:15;;;;;;;9.53;4.67;;;;;;;20.29;44.30;95304.00;6038928;28;109176;-74
2023/05/04 06:27:18;;;;;;;5.73;4.30;;;;;;;20.36;44.07;95300.22;6046417;28;110203;-71
2023/05/04 06:30:24;;;;;;;8.10;4.03;;;;;;;20.37;44.01;95309.75;6038791;28;110095;-73
2023/05/04 06:33:27;;;;;;;4.27;3.50;;;;;;;20.28;44.00;95307.72;6039192;28;108947;-69
2023/05/04 06:36:30;;;;;;;12.50;4.63;;;;;;;20.42;44.26;95304.38;6039483;28;109011;-69
2023/05/04 06:39:33;;;;;;;6.10;4.43;;;;;;;20.25;44.45;95303.00;6028343;28;109157;-64
2023/05/04 06:42:36;;;;;;;7.10;4.20;;;;;;;20.06;44.58;95307.50;6039473;28;109099;-64
2023/05/04 06:45:41;;;;;;;7.10;3.77;;;;;;;20.09;44.77;95324.72;6038874;28;109911;-65
2023/05/04 06:48:44;;;;;;;21.23;5.10;;;;;;;20.30;45.97;95318.88;6033213;28;109069;-64
2023/05/04 06:51:47;;;;;;;9.77;4.40;;;;;;;20.44;45.96;95315.50;6030578;28;109176;-65
2023/05/04 06:54:50;;;;;;;14.50;4.93;;;;;;;20.61;44.17;95323.75;6039197;28;110330;-65
2023/05/04 06:57:53;;;;;;;22.30;10.90;;;;;;;20.71;44.29;95317.50;6036580;28;109101;-65
2023/05/04 07:00:58;;;;;;;13.90;5.87;;;;;;;20.75;44.39;95321.94;6023527;28;110050;-66
2023/05/04 07:04:01;;;;;;;12.43;6.57;;;;;;;20.68;43.10;95315.41;6037779;28;109147;-66
2023/05/04 07:07:05;;;;;;;10.87;6.00;;;;;;;20.69;43.36;95322.31;6037603;28;109512;-66
2023/05/04 07:10:09;;;;;;;7.90;4.63;;;;;;;20.68;43.45;95324.19;6037843;28;109743;-66
2023/05/04 07:13:13;;;;;;;6.77;4.90;;;;;;;20.67;43.14;95324.44;6027719;28;109418;-66
2023/05/04 07:16:18;;;;;;;6.43;4.13;;;;;;;20.67;43.20;95319.94;6037291;28;109894;-64
2023/05/04 07:19:21;;;;;;;6.73;4.20;;;;;;;20.65;43.32;95322.09;6037312;28;109106;-65
2023/05/04 07:22:24;;;;;;;4.57;4.00;;;;;;;20.65;43.16;95318.63;6044000;28;109291;-66
2023/05/04 07:25:28;;;;;;;23.80;5.93;;;;;;;20.55;43.07;95314.28;6028008;28;111009;-67
2023/05/04 07:28:32;;;;;;;24.67;6.57;;;;;;;20.61;42.88;95329.06;6037256;28;109310;-66
2023/05/04 07:31:37;;;;;;;17.53;5.40;;;;;;;20.62;43.01;95325.31;6037536;28;109357;-66
2023/05/04 07:34:40;;;;;;;10.00;4.50;;;;;;;20.62;42.93;95333.31;6031762;28;109708;-67
2023/05/04 07:37:48;;;;;;;7.37;4.87;;;;;;;20.61;43.03;95326.41;6036356;28;109278;-65
2023/05/04 07:40:51;;;;;;;9.47;4.00;;;;;;;20.54;43.13;95326.00;6037614;28;109552;-67
2023/05/04 07:43:54;;;;;;;9.47;3.90;;;;;;;20.54;42.69;95321.47;6037260;28;109243;-66
2023/05/04 07:47:00;;;;;;;5.70;4.17;;;;;;;20.56;43.29;95331.81;6026015;28;109392;-67
2023/05/04 07:50:04;;;;;;;7.03;4.67;;;;;;;20.55;42.92;95332.88;6036473;28;109140;-65
2023/05/04 07:53:08;;;;;;;5.83;4.40;;;;;;;20.55;43.14;95332.88;6036734;28;109170;-65
2023/05/04 07:56:12;;;;;;;4.67;4.30;;;;;;;20.57;43.11;95338.69;6037572;28;109090;-65
2023/05/04 07:59:17;;;;;;;4.13;3.73;;;;;;;20.56;42.59;95334.47;6026350;28;109056;-66
2023/05/04 08:02:22;;;;;;;5.57;4.20;;;;;;;20.57;42.68;95344.03;6034736;28;110561;-66
2023/05/04 08:05:25;;;;;;;4.27;3.90;;;;;;;20.56;43.11;95337.91;6040788;28;109122;-66
2023/05/04 08:08:29;;;;;;;21.40;7.80;;;;;;;20.52;42.97;95339.56;6045995;28;110171;-66
2023/05/04 08:11:33;;;;;;;23.87;6.80;;;;;;;20.54;43.14;95341.94;6035721;28;109249;-69
2023/05/04 08:14:37;;;;;;;21.27;5.47;;;;;;;20.55;42.50;95352.28;6040500;28;109101;-69
2023/05/04 08:17:41;;;;;;;10.67;5.00;;;;;;;20.59;42.67;95350.63;6038399;28;111884;-69
2023/05/04 08:20:44;;;;;;;8.97;5.00;;;;;;;20.58;42.63;95351.72;6024909;28;110148;-69
2023/05/04 08:23:48;;;;;;;9.37;5.30;;;;;;;20.51;42.94;95335.34;6086809;28;109020;-67
2023/05/04 08:26:51;;;;;;;9.30;4.90;;;;;;;20.59;42.50;95350.63;6045454;28;109184;-68
2023/05/04 08:30:10;;;;;;;13.53;5.97;;;;;;;20.58;43.28;95353.56;6037731;28;109383;-69
2023/05/04 08:33:14;;;;;;;5.87;5.00;;;;;;;20.42;43.22;95349.56;6028595;28;109188;-61
2023/05/04 08:36:17;;;;;;;8.57;5.37;;;;;;;20.21;43.45;95343.69;6040670;28;110191;-61
2023/05/04 08:39:20;;;;;;;14.33;5.97;;;;;;;20.26;43.63;95347.09;6040510;28;109430;-61
2023/05/04 08:42:27;;;;;;;9.03;5.10;;;;;;;20.16;43.60;95341.88;6036513;28;109085;-61
2023/05/04 08:45:30;;;;;;;5.63;5.03;;;;;;;20.11;44.10;95344.59;6034850;28;110112;-61
2023/05/04 08:48:36;;;;;;;7.37;6.70;;;;;;;20.13;43.79;95342.44;6040248;28;110308;-61
2023/05/04 08:51:40;;;;;;;6.80;6.30;;;;;;;20.16;43.71;95336.56;6039732;28;110033;-63
2023/05/04 08:54:44;;;;;;;8.70;5.90;;;;;;;20.16;43.79;95331.25;6030475;28;109212;-61
2023/05/04 08:57:48;;;;;;;6.20;5.70;;;;;;;20.22;43.80;95327.47;6040665;28;109604;-61
2023/05/04 09:00:53;;;;;;;6.33;5.73;;;;;;;20.20;43.86;95334.94;6040194;28;109882;-61
2023/05/04 09:04:01;;;;;;;6.27;5.67;;;;;;;20.12;43.69;95330.25;6040708;28;109144;-62
2023/05/04 09:07:05;;;;;;;6.33;5.83;;;;;;;20.14;43.70;95340.56;6029665;28;109135;-61
2023/05/04 09:10:09;;;;;;;6.20;5.70;;;;;;;19.88;43.95;95319.66;6040403;28;109233;-62
2023/05/04 09:13:12;;;;;;;7.07;6.43;;;;;;;19.99;43.77;95347.66;6057041;28;109574;-61
2023/05/04 09:16:15;;;;;;;7.63;6.97;;;;;;;19.96;43.80;95326.19;6035776;28;109233;-67
2023/05/04 09:19:21;;;;;;;20.17;8.87;;;;;;;20.32;42.92;95339.84;6035283;28;109061;-67
2023/05/04 09:22:24;;;;;;;17.03;7.50;;;;;;;20.41;42.79;95347.97;6031182;28;109264;-67
2023/05/04 09:25:29;;;;;;;24.73;10.87;;;;;;;20.45;42.66;95348.97;6050784;28;109340;-68
2023/05/04 09:28:37;;;;;;;30.10;9.57;;;;;;;20.48;42.53;95343.06;6024668;28;109227;-67
2023/05/04 09:31:46;;;;;;;76.00;16.90;;;;;;;20.44;42.70;95337.53;6036991;28;110898;-69
2023/05/04 09:34:51;;;;;;;24.20;9.73;;;;;;;20.45;42.91;95339.13;6051306;28;112607;-69
2023/05/04 09:37:55;;;;;;;18.93;11.07;;;;;;;20.44;42.99;95334.09;6067322;28;109250;-69
2023/05/04 09:40:58;;;;;;;11.20;9.00;;;;;;;20.47;42.94;95338.84;6028645;28;108894;-69
2023/05/04 09:44:02;;;;;;;20.60;9.40;;;;;;;20.49;42.82;95334.03;6039338;28;109235;-68
2023/05/04 09:47:05;;;;;;;24.23;9.90;;;;;;;20.41;43.23;95338.13;6060430;28;109791;-70
2023/05/04 09:50:16;;;;;;;19.23;10.33;;;;;;;20.43;42.92;95327.22;6039629;28;111663;-70
2023/05/04 09:53:24;;;;;;;16.73;8.00;;;;;;;20.51;42.86;95329.22;6032365;28;109271;-70
2023/05/04 09:56:37;;;;;;;14.13;9.10;;;;;;;20.53;42.94;95329.72;6039414;28;109938;-70
2023/05/04 09:59:41;;;;;;;14.70;8.27;;;;;;;20.51;43.05;95322.03;6039449;28;109373;-70
2023/05/04 10:02:45;;;;;;;14.40;7.60;;;;;;;20.54;42.90;95321.47;6028069;28;110320;-70
2023/05/04 10:05:51;;;;;;;11.30;7.90;;;;;;;20.56;42.95;95321.19;6039664;28;109046;-70
2023/05/04 10:08:55;;;;;;;16.00;8.20;;;;;;;20.55;43.11;95317.72;6050406;28;109682;-70
2023/05/04 10:12:00;;;;;;;13.40;8.40;;;;;;;20.60;42.98;95322.16;6033023;28;109821;-69
2023/05/04 10:15:06;;;;;;;11.30;9.13;;;;;;;20.63;42.69;95308.28;6028947;28;109604;-69
2023/05/04 10:18:28;;;;;;;14.20;8.10;;;;;;;20.63;42.93;95303.75;6039031;28;109453;-70
2023/05/04 10:21:46;;;;;;;14.80;9.17;;;;;;;20.71;43.34;95305.00;6039127;28;109547;-69
2023/05/04 10:25:22;;;;;;;21.70;10.87;;;;;;;20.55;43.47;95295.66;6030356;28;109044;-68
2023/05/04 10:28:37;;;;;;;18.70;10.13;;;;;;;20.67;43.29;95297.84;6044823;28;108883;-68
2023/05/04 10:31:42;;;;;;;18.90;10.57;;;;;;;20.73;43.41;95307.34;6036739;28;109087;-68
2023/05/04 10:34:46;;;;;;;28.40;12.90;;;;;;;20.74;43.86;95307.06;6038667;28;109561;-67
2023/05/04 10:37:54;;;;;;;20.07;10.97;;;;;;;20.75;43.36;95299.88;6028838;28;109786;-68
2023/05/04 10:40:57;;;;;;;18.13;11.30;;;;;;;20.68;42.85;95297.59;6038628;28;109045;-69
2023/05/04 10:44:04;;;;;;;15.50;9.80;;;;;;;20.67;43.83;95292.53;6038465;28;109249;-68
2023/05/04 10:47:07;;;;;;;14.53;10.73;;;;;;;20.70;43.26;95298.09;6034517;28;108848;-68
2023/05/04 10:50:13;;;;;;;17.10;10.90;;;;;;;20.67;43.48;95301.34;6032926;28;109479;-68
2023/05/04 10:53:18;;;;;;;12.27;9.90;;;;;;;20.65;42.90;95300.81;6031997;28;111379;-67
2023/05/04 10:56:24;;;;;;;11.67;9.77;;;;;;;20.67;43.21;95304.00;6037449;28;108920;-67
2023/05/04 10:59:27;;;;;;;10.10;9.13;;;;;;;20.66;42.72;95307.72;6029630;28;109045;-69
2023/05/04 11:02:32;;;;;;;12.60;11.37;;;;;;;20.66;42.73;95304.25;6039186;28;111851;-68
2023/05/04 11:05:43;;;;;;;12.90;11.43;;;;;;;20.63;42.68;95305.63;6059281;28;109392;-68
2023/05/04 11:08:58;;;;;;;12.63;11.33;;;;;;;20.65;42.66;95310.66;6053279;28;110023;-69
2023/05/04 11:12:01;;;;;;;12.10;10.90;;;;;;;20.65;42.50;95310.66;6027243;28;109100;-67
2023/05/04 11:15:06;;;;;;;11.63;10.63;;;;;;;20.60;42.49;95308.88;6037926;28;109252;-68
2023/05/04 11:18:10;;;;;;;11.73;10.63;;;;;;;20.60;42.49;95306.22;6038754;28;109499;-68
2023/05/04 11:21:22;;;;;;;11.57;10.37;;;;;;;20.54;42.41;95302.84;6033231;28;108819;-67
2023/05/04 11:24:32;;;;;;;19.63;12.17;;;;;;;20.57;42.11;95312.91;6032655;28;109255;-68
2023/05/04 11:27:35;;;;;;;12.60;11.33;;;;;;;20.57;42.42;95304.13;6036977;28;109243;-69
2023/05/04 11:30:40;;;;;;;15.80;11.57;;;;;;;20.60;42.22;95309.66;6037636;28;109037;-69
2023/05/04 11:33:47;;;;;;;13.33;11.83;;;;;;;20.59;42.37;95308.09;6028284;28;110488;-69
2023/05/04 11:36:50;;;;;;;12.20;10.90;;;;;;;20.56;42.20;95307.88;6035534;28;108774;-69
2023/05/04 11:39:55;;;;;;;11.80;10.70;;;;;;;20.58;41.93;95313.69;6036506;28;109242;-69
2023/05/04 11:42:59;;;;;;;11.87;10.73;;;;;;;20.55;42.29;95306.31;6040889;28;110488;-69
2023/05/04 11:46:04;;;;;;;12.57;11.37;;;;;;;20.56;42.20;95307.88;6031097;28;109191;-69
2023/05/04 11:49:07;;;;;;;12.00;10.90;;;;;;;20.52;41.88;95294.38;6041268;28;110231;-69
2023/05/04 11:52:11;;;;;;;10.97;9.97;;;;;;;20.56;42.06;95307.88;6041602;28;109042;-63
2023/05/04 11:55:26;;;;;;;11.40;10.47;;;;;;;20.56;42.25;95295.38;6038929;28;109144;-66
2023/05/04 11:58:29;;;;;;;11.50;10.40;;;;;;;20.59;42.43;95307.28;6034718;28;109039;-63
2023/05/04 12:01:34;;;;;;;11.93;10.83;;;;;;;20.50;42.31;95298.38;6040924;28;109158;-64
2023/05/04 12:04:38;;;;;;;11.57;10.47;;;;;;;20.45;42.00;95301.91;6041193;28;109196;-65
2023/05/04 12:07:41;;;;;;;12.67;11.37;;;;;;;20.44;42.14;95289.69;6030585;28;109912;-63
2023/05/04 12:10:48;;;;;;;26.67;12.87;;;;;;;20.47;42.56;95298.97;6037993;28;109633;-63
2023/05/04 12:14:03;;;;;;;17.30;10.80;;;;;;;20.47;42.75;95293.66;6040458;28;110212;-70
2023/05/04 12:17:06;;;;;;;20.33;12.40;;;;;;;20.62;42.62;95304.06;6040137;28;109468;-72
2023/05/04 12:20:10;;;;;;;18.70;12.00;;;;;;;20.70;42.58;95289.31;6029416;28;109180;-71
2023/05/04 12:23:13;;;;;;;18.50;10.83;;;;;;;20.75;42.90;95298.00;6040401;28;109127;-71
2023/05/04 12:26:18;;;;;;;28.70;11.50;;;;;;;20.77;42.51;95292.38;6043235;28;109581;-72
2023/05/04 12:29:22;;;;;;;16.03;10.73;;;;;;;20.79;42.76;95292.88;6029001;28;109155;-70
2023/05/04 12:32:25;;;;;;;22.40;11.60;;;;;;;20.79;42.49;95293.69;6034474;28;110325;-71
2023/05/04 12:35:29;;;;;;;15.00;10.97;;;;;;;20.80;42.49;95283.81;6040327;28;109113;-70
2023/05/04 12:38:32;;;;;;;17.60;10.77;;;;;;;20.79;43.03;95279.59;6038384;28;109225;-72
2023/05/04 12:41:37;;;;;;;22.07;12.57;;;;;;;20.79;42.59;95276.94;6030282;28;109994;-71
2023/05/04 12:44:41;;;;;;;27.07;11.20;;;;;;;20.82;42.80;95279.78;6044323;28;110266;-73
2023/05/04 12:47:44;;;;;;;20.97;11.30;;;;;;;20.83;42.52;95270.72;6039588;28;109078;-73
2023/05/04 12:50:48;;;;;;;21.60;12.00;;;;;;;20.82;42.84;95271.81;6040024;28;109161;-73
2023/05/04 12:53:51;;;;;;;24.73;11.90;;;;;;;20.83;42.50;95270.72;6029900;28;109549;-72
2023/05/04 12:56:56;;;;;;;27.13;12.50;;;;;;;20.84;42.50;95271.53;6039079;28;109335;-74
2023/05/04 13:00:00;;;;;;;20.17;12.47;;;;;;;20.84;43.00;95261.69;6038848;28;109343;-71
2023/05/04 13:03:03;;;;;;;23.33;11.40;;;;;;;20.85;43.09;95260.63;6065428;28;109313;-66
2023/05/04 13:06:07;;;;;;;18.40;10.90;;;;;;;20.87;43.02;95253.13;6051310;28;110063;-67
2023/05/04 13:09:11;;;;;;;19.07;10.30;;;;;;;20.90;43.17;95262.38;6040260;28;109066;-60
2023/05/04 13:12:16;;;;;;;21.70;11.70;;;;;;;20.89;42.92;95260.81;6039932;28;109128;-67
2023/05/04 13:15:19;;;;;;;41.10;13.10;;;;;;;21.00;43.43;95266.72;6035225;28;109087;-68
2023/05/04 13:18:25;;;;;;;40.00;13.07;;;;;;;21.75;42.43;95264.53;6035011;28;109178;-69
2023/05/04 13:21:29;;;;;;;49.03;13.83;;;;;;;22.59;40.72;95257.97;6038472;28;109362;-60
2023/05/04 13:24:32;;;;;;;42.13;12.17;;;;;;;23.11;39.84;95255.59;6040020;28;109357;-60
2023/05/04 13:27:37;;;;;;;29.57;10.90;;;;;;;23.40;39.67;95247.91;6029299;28;109545;-62
2023/05/04 13:30:40;;;;;;;31.63;11.10;;;;;;;23.81;39.45;95242.22;6038312;28;108920;-61
2023/05/04 13:33:44;;;;;;;29.73;10.37;;;;;;;24.12;38.90;95246.69;6038775;28;109907;-66
2023/05/04 13:36:47;;;;;;;53.63;12.63;;;;;;;24.14;38.64;95249.81;6040061;28;109482;-68
2023/05/04 13:39:50;;;;;;;54.90;13.53;;;;;;;24.31;37.98;95255.19;6028694;28;110195;-64
2023/05/04 13:42:55;;;;;;;78.30;15.07;;;;;;;24.41;37.70;95249.53;6040179;28;109278;-66
2023/05/04 13:46:02;;;;;;;99.67;17.87;;;;;;;24.66;37.76;95255.16;6039277;28;109060;-60
2023/05/04 13:49:05;;;;;;;80.57;16.40;;;;;;;25.03;37.01;95254.53;6038401;28;110054;-61
2023/05/04 13:52:09;;;;;;;85.63;17.60;;;;;;;24.00;38.64;95252.63;6045115;28;109224;-60
2023/05/04 13:55:13;;;;;;;76.90;17.90;;;;;;;23.23;40.12;95237.94;6040101;28;109244;-60
2023/05/04 13:58:17;;;;;;;64.43;17.20;;;;;;;22.90;40.89;95247.34;6039735;28;109055;-60
2023/05/04 14:01:22;;;;;;;61.93;16.97;;;;;;;22.66;41.81;95244.97;6029112;28;109533;-61
2023/05/04 14:04:25;;;;;;;63.37;15.60;;;;;;;22.42;41.57;95237.25;6039494;28;109061;-59
2023/05/04 14:07:29;;;;;;;56.00;16.10;;;;;;;22.34;41.81;95262.75;6039162;28;109264;-61
2023/05/04 14:10:32;;;;;;;61.50;16.80;;;;;;;22.21;42.32;95252.16;6038627;28;109178;-63